Accueil
METAR-TAF:

METAR-TAF

Aéroports :

Muskogee, Oklahoma, États-Unis

latitude: 35-39-25N, longitude: 095-21-35W, altitude: 185 m

Observation

Le bulletin a été fait il y a 28 minutes, à 21:53 UTC
Vent 11 kt de sud-est
Température 20°C
Humidité 68%
Pression 1012 hPa
Visibilité: 16.1 km
Quelques nuages à une hauteur de 2900 ft
Ciel couvert à une hauteur de 3900 ft

METAR: KMKO 202153Z AUTO 14011KT 10SM FEW029 OVC039 20/14 A2989 RMK AO2 SLP120 T02000139

Heure: 16:21 (22:21 UTC)


TAF: absent

Observations et prévisions météorologiques de plus de 4000 aéroports (messages METAR et TAF).

Les stations disponibles sont représentées par des disques jaunes et rouges sur la carte.

Passer la souris dessus pour voir le nom de la station.

Cliquer dessus pour voir les observations et prévisions météorologiques.

Pour changer de carte: cliquez sur les boutons verts avec une croix noire pour zoomer, sur le bouton vert avec un tiret pour effectuer un zoom arrière, ou sur les flèches vertes pour les cartes adjacentes.


METAR-TAF: